Time;durP1;ratioP1;P1;durP2;ratioP2;P2;SDS_P1;SDS_P2;PMS_P1;PMS_P2;Temp;Humidity;BMP_temperature;BMP_pressure;BME280_temperature;BME280_humidity;BME280_pressure;Samples;Min_cycle;Max_cycle;Signal;HPM_P1;HPM_P2
2023/08/03 00:00:22;;;;;;;5.90;1.75;;;16.50;99.90;;;;;;5093905;28;20032;-59
2023/08/03 00:02:48;;;;;;;8.05;2.08;;;16.40;99.90;;;;;;5093826;28;20043;-59
2023/08/03 00:05:17;;;;;;;8.02;1.63;;;16.40;99.90;;;;;;5093493;28;20129;-60
2023/08/03 00:07:44;;;;;;;7.88;1.70;;;16.50;99.90;;;;;;5093405;28;20433;-60
2023/08/03 00:10:10;;;;;;;5.20;1.63;;;16.40;99.90;;;;;;5093630;28;20123;-60
2023/08/03 00:12:35;;;;;;;11.25;1.55;;;16.50;99.90;;;;;;5093460;28;20541;-60
2023/08/03 00:15:01;;;;;;;6.10;1.42;;;16.40;99.90;;;;;;5093725;28;20454;-60
2023/08/03 00:17:27;;;;;;;5.65;1.67;;;16.40;99.90;;;;;;5093161;28;20067;-60
2023/08/03 00:19:52;;;;;;;3.45;1.60;;;16.50;99.90;;;;;;5093249;28;20046;-59
2023/08/03 00:22:18;;;;;;;4.35;1.63;;;16.40;99.90;;;;;;5093021;28;20070;-60
2023/08/03 00:24:43;;;;;;;2.53;1.30;;;16.50;99.90;;;;;;5093142;28;20036;-59
2023/08/03 00:27:09;;;;;;;18.80;1.92;;;16.50;99.90;;;;;;5110803;28;20032;-59
2023/08/03 00:29:35;;;;;;;9.63;2.35;;;16.50;99.90;;;;;;5113346;28;20477;-59
2023/08/03 00:32:01;;;;;;;4.00;1.42;;;16.50;99.90;;;;;;5113547;28;20047;-58
2023/08/03 00:34:29;;;;;;;4.60;1.25;;;16.40;99.90;;;;;;5113677;28;20040;-58
2023/08/03 00:36:55;;;;;;;3.30;1.23;;;16.50;99.90;;;;;;5112082;28;20130;-59
2023/08/03 00:39:20;;;;;;;6.15;2.00;;;16.40;99.90;;;;;;5113164;28;20143;-59
2023/08/03 00:41:46;;;;;;;5.18;1.45;;;16.50;99.90;;;;;;5113180;28;20043;-59
2023/08/03 00:44:11;;;;;;;5.63;1.00;;;16.50;99.90;;;;;;5113213;28;20031;-60
2023/08/03 00:46:37;;;;;;;7.13;1.23;;;16.50;99.90;;;;;;5113386;28;20035;-59
2023/08/03 00:49:03;;;;;;;3.97;1.17;;;16.50;99.90;;;;;;5112976;28;20154;-59
2023/08/03 00:51:28;;;;;;;7.00;1.63;;;16.40;99.90;;;;;;5112818;28;20040;-59
2023/08/03 00:53:55;;;;;;;2.92;1.35;;;16.50;99.90;;;;;;5113453;28;20043;-59
2023/08/03 00:56:21;;;;;;;2.60;0.90;;;16.50;99.90;;;;;;5112893;28;20485;-59
2023/08/03 00:58:46;;;;;;;4.90;1.15;;;16.50;99.90;;;;;;5113263;28;20082;-60
2023/08/03 01:01:12;;;;;;;2.53;0.95;;;16.50;99.90;;;;;;5112916;27;20402;-59
2023/08/03 01:03:38;;;;;;;4.22;1.00;;;16.40;99.90;;;;;;5113065;28;20040;-59
2023/08/03 01:06:04;;;;;;;1.35;0.80;;;16.60;99.90;;;;;;5113073;28;20469;-59
2023/08/03 01:08:29;;;;;;;4.80;1.00;;;16.60;99.90;;;;;;5112567;28;20039;-59
2023/08/03 01:10:55;;;;;;;3.78;0.88;;;16.50;99.90;;;;;;5111388;28;20044;-59
2023/08/03 01:13:22;;;;;;;4.75;1.42;;;16.50;99.90;;;;;;5112794;28;20363;-59
2023/08/03 01:15:48;;;;;;;3.45;0.90;;;16.40;99.90;;;;;;5112931;28;20111;-59
2023/08/03 01:18:14;;;;;;;4.90;1.50;;;16.50;99.90;;;;;;5112846;28;20035;-59
2023/08/03 01:20:41;;;;;;;3.42;1.42;;;16.50;99.90;;;;;;5112592;28;20046;-59
2023/08/03 01:23:08;;;;;;;3.70;1.10;;;16.50;99.90;;;;;;5111385;28;20044;-59
2023/08/03 01:25:35;;;;;;;3.05;1.10;;;16.50;99.90;;;;;;5095857;28;20034;-59
2023/08/03 01:28:04;;;;;;;2.70;1.48;;;16.50;99.90;;;;;;5092205;28;20043;-59
2023/08/03 01:30:30;;;;;;;3.03;1.88;;;16.50;99.90;;;;;;5092000;28;20036;-59
2023/08/03 01:32:56;;;;;;;7.32;1.40;;;16.50;99.90;;;;;;5092166;28;20119;-58
2023/08/03 01:35:22;;;;;;;4.97;1.40;;;16.60;99.90;;;;;;5090721;28;20169;-58
2023/08/03 01:37:50;;;;;;;5.50;1.27;;;16.60;99.90;;;;;;5091775;28;20123;-58
2023/08/03 01:40:17;;;;;;;3.10;1.27;;;16.50;99.90;;;;;;5090614;28;20519;-58
2023/08/03 01:42:42;;;;;;;3.22;1.33;;;16.40;99.90;;;;;;5092056;28;20032;-58
2023/08/03 01:45:08;;;;;;;6.07;1.60;;;16.50;99.90;;;;;;5091758;28;20113;-57
2023/08/03 01:47:34;;;;;;;3.03;1.35;;;16.40;99.90;;;;;;5090521;28;20036;-58
2023/08/03 01:50:00;;;;;;;7.03;1.23;;;16.40;99.90;;;;;;5091991;28;20032;-58
2023/08/03 01:52:25;;;;;;;6.95;1.85;;;16.40;99.90;;;;;;5092122;28;20413;-58
2023/08/03 01:54:51;;;;;;;4.25;1.17;;;16.50;99.90;;;;;;5091856;28;20677;-58
2023/08/03 01:57:19;;;;;;;6.00;1.33;;;16.30;99.90;;;;;;5091983;28;20024;-57
2023/08/03 01:59:45;;;;;;;3.33;1.17;;;16.40;99.90;;;;;;5092796;28;20040;-58
2023/08/03 02:02:12;;;;;;;2.10;0.90;;;16.40;99.90;;;;;;5096005;28;20034;-57
2023/08/03 02:04:37;;;;;;;3.03;1.10;;;16.40;99.90;;;;;;5095870;28;20035;-57
2023/08/03 02:07:15;;;;;;;2.03;1.05;;;16.40;99.90;;;;;;5095843;28;20051;-58
2023/08/03 02:09:41;;;;;;;8.10;1.23;;;16.50;99.90;;;;;;5096093;28;20036;-58
2023/08/03 02:12:07;;;;;;;2.90;1.00;;;16.50;99.90;;;;;;5096206;28;20051;-58
2023/08/03 02:14:33;;;;;;;2.53;1.05;;;16.50;99.90;;;;;;5095997;28;20093;-58
2023/08/03 02:16:59;;;;;;;3.38;1.08;;;16.40;99.90;;;;;;5095758;28;20466;-58
2023/08/03 02:19:24;;;;;;;2.42;0.95;;;16.50;99.90;;;;;;5095776;28;20115;-58
2023/08/03 02:21:50;;;;;;;4.82;1.10;;;16.40;99.90;;;;;;5095797;28;20036;-58
2023/08/03 02:24:15;;;;;;;4.00;1.05;;;16.50;99.90;;;;;;5095920;28;20048;-58
2023/08/03 02:26:41;;;;;;;2.40;1.00;;;16.40;99.90;;;;;;5094681;28;20044;-58
2023/08/03 02:29:07;;;;;;;3.30;1.00;;;16.50;99.90;;;;;;5095472;28;20039;-58
2023/08/03 02:31:32;;;;;;;2.85;1.20;;;16.60;99.90;;;;;;5095255;28;20052;-58
2023/08/03 02:33:58;;;;;;;4.78;1.02;;;16.60;99.90;;;;;;5095306;28;20036;-58
2023/08/03 02:36:23;;;;;;;1.30;0.82;;;16.60;99.90;;;;;;5095086;28;20040;-58
2023/08/03 02:38:49;;;;;;;2.35;0.90;;;16.50;99.90;;;;;;5095690;28;20067;-58
2023/08/03 02:41:15;;;;;;;3.03;0.95;;;16.50;99.90;;;;;;5095362;28;20044;-58
2023/08/03 02:43:41;;;;;;;3.53;1.02;;;16.50;99.90;;;;;;5095513;28;20462;-58
2023/08/03 02:46:07;;;;;;;3.85;1.20;;;16.60;99.90;;;;;;5095408;28;20032;-58
2023/08/03 02:48:32;;;;;;;3.33;1.10;;;16.60;99.90;;;;;;5095352;28;20063;-58
2023/08/03 02:50:58;;;;;;;2.20;0.98;;;16.50;99.90;;;;;;5115181;28;20110;-58
2023/08/03 02:53:24;;;;;;;2.25;1.20;;;16.50;99.90;;;;;;5115758;27;20459;-59
2023/08/03 02:55:51;;;;;;;4.32;1.20;;;16.50;99.90;;;;;;5115409;28;20031;-58
2023/08/03 02:58:17;;;;;;;1.65;1.00;;;16.50;99.90;;;;;;5115087;28;20044;-59
2023/08/03 03:00:42;;;;;;;2.78;1.20;;;16.60;99.90;;;;;;5115401;28;20043;-59
2023/08/03 03:03:08;;;;;;;2.40;1.15;;;16.50;99.90;;;;;;5115319;28;20043;-59
2023/08/03 03:05:34;;;;;;;2.80;1.10;;;16.60;99.90;;;;;;5115837;28;20085;-59
2023/08/03 03:07:59;;;;;;;4.13;1.25;;;16.60;99.90;;;;;;5115803;28;20035;-58
2023/08/03 03:10:25;;;;;;;2.05;1.17;;;16.50;99.90;;;;;;5114752;28;20439;-59
2023/08/03 03:12:51;;;;;;;5.47;1.42;;;16.60;99.90;;;;;;5114954;28;20046;-59
2023/08/03 03:15:16;;;;;;;2.17;1.13;;;16.50;99.90;;;;;;5096672;28;20043;-59
2023/08/03 03:17:42;;;;;;;3.35;1.42;;;16.60;99.90;;;;;;5115072;28;20367;-59
2023/08/03 03:20:09;;;;;;;2.72;1.38;;;16.60;99.90;;;;;;5114670;28;20039;-59
2023/08/03 03:22:35;;;;;;;3.15;1.40;;;16.60;99.90;;;;;;5115183;28;20042;-59
2023/08/03 03:25:05;;;;;;;2.90;1.60;;;16.50;99.90;;;;;;5115117;28;20036;-59
2023/08/03 03:27:31;;;;;;;3.05;1.63;;;16.50;99.90;;;;;;5114877;28;20035;-59
2023/08/03 03:29:56;;;;;;;2.63;1.40;;;16.60;99.90;;;;;;5115004;28;20123;-59
2023/08/03 03:32:22;;;;;;;1.80;1.60;;;16.60;99.90;;;;;;5114327;28;20069;-57
2023/08/03 03:34:49;;;;;;;2.67;1.90;;;16.70;99.90;;;;;;5096553;28;20060;-58
2023/08/03 03:37:14;;;;;;;2.83;1.70;;;16.70;99.90;;;;;;5094153;28;20510;-58
2023/08/03 03:39:40;;;;;;;5.10;1.90;;;16.60;99.90;;;;;;5093905;28;20050;-59
2023/08/03 03:42:06;;;;;;;3.70;2.17;;;16.60;99.90;;;;;;5094363;28;20094;-59
2023/08/03 03:44:32;;;;;;;2.47;1.70;;;16.50;99.90;;;;;;5094333;28;20072;-59
2023/08/03 03:46:59;;;;;;;3.55;2.38;;;16.50;99.90;;;;;;5093945;28;20082;-59
2023/08/03 03:49:25;;;;;;;4.55;2.13;;;16.50;99.90;;;;;;5094254;28;20529;-59
2023/08/03 03:51:50;;;;;;;3.63;1.90;;;16.60;99.90;;;;;;5093826;28;20036;-61
2023/08/03 03:54:16;;;;;;;5.38;2.50;;;16.50;99.90;;;;;;5093718;28;20085;-60
2023/08/03 03:56:41;;;;;;;3.65;2.30;;;16.50;99.90;;;;;;5110421;28;20032;-60
2023/08/03 03:59:07;;;;;;;9.00;3.13;;;16.50;99.90;;;;;;5114146;28;20418;-61
2023/08/03 04:01:33;;;;;;;4.03;2.58;;;16.60;99.90;;;;;;5113994;28;20035;-60
2023/08/03 04:03:58;;;;;;;7.18;3.08;;;16.60;99.90;;;;;;5113768;28;20106;-61
2023/08/03 04:06:24;;;;;;;5.43;3.45;;;16.60;99.90;;;;;;5113792;28;20462;-61
2023/08/03 04:08:49;;;;;;;3.65;2.47;;;16.60;99.90;;;;;;5113592;28;20470;-60
2023/08/03 04:11:15;;;;;;;6.30;3.25;;;16.70;99.90;;;;;;5113844;28;20031;-61
2023/08/03 04:13:41;;;;;;;4.95;3.22;;;16.60;99.90;;;;;;5112449;27;20043;-60
2023/08/03 04:16:06;;;;;;;6.75;3.17;;;16.70;99.90;;;;;;5113000;28;20096;-58
2023/08/03 04:18:32;;;;;;;5.45;4.05;;;16.60;99.90;;;;;;5113972;28;20476;-58
2023/08/03 04:20:58;;;;;;;6.63;4.05;;;16.60;99.90;;;;;;5114140;28;20039;-59
2023/08/03 04:23:23;;;;;;;5.93;4.03;;;16.70;99.90;;;;;;5113091;28;20474;-58
2023/08/03 04:25:49;;;;;;;8.23;4.20;;;16.70;99.90;;;;;;5113770;28;20067;-58
2023/08/03 04:28:14;;;;;;;10.10;4.65;;;16.60;99.90;;;;;;5113523;27;20043;-59
2023/08/03 04:30:40;;;;;;;7.90;4.82;;;16.60;99.90;;;;;;5113653;28;20039;-59
2023/08/03 04:33:06;;;;;;;9.20;5.03;;;16.60;99.90;;;;;;5110002;28;20043;-59
2023/08/03 04:35:31;;;;;;;7.57;4.50;;;16.60;99.90;;;;;;5093731;28;20040;-59
2023/08/03 04:37:57;;;;;;;9.88;5.00;;;16.80;99.90;;;;;;5093239;28;20423;-59
2023/08/03 04:40:22;;;;;;;9.88;4.70;;;16.70;99.90;;;;;;5092867;28;20505;-59
2023/08/03 04:42:48;;;;;;;8.95;4.47;;;16.60;99.90;;;;;;5093350;28;20084;-59
2023/08/03 04:45:14;;;;;;;10.68;5.22;;;16.70;99.90;;;;;;5093152;28;20028;-59
2023/08/03 04:47:39;;;;;;;7.68;5.28;;;16.60;99.90;;;;;;5093290;28;20032;-59
2023/08/03 04:50:05;;;;;;;8.68;4.97;;;16.60;99.90;;;;;;5092705;28;20382;-58
2023/08/03 04:52:31;;;;;;;8.82;4.40;;;16.80;99.90;;;;;;5093107;28;20149;-59
2023/08/03 04:54:57;;;;;;;7.55;4.20;;;16.60;99.90;;;;;;5092576;28;20500;-59
2023/08/03 04:57:22;;;;;;;6.45;4.63;;;16.70;99.90;;;;;;5093023;28;20032;-59
2023/08/03 04:59:48;;;;;;;5.28;4.10;;;16.70;99.90;;;;;;5092891;28;20051;-59
2023/08/03 05:02:13;;;;;;;8.65;4.65;;;16.70;99.90;;;;;;5092383;28;20036;-59
2023/08/03 05:04:39;;;;;;;7.57;3.70;;;16.70;99.90;;;;;;5092693;28;20393;-60
2023/08/03 05:07:05;;;;;;;6.25;4.07;;;16.70;99.90;;;;;;5092553;28;20036;-60
2023/08/03 05:09:30;;;;;;;8.15;3.83;;;16.80;99.90;;;;;;5092750;28;20071;-59
2023/08/03 05:11:56;;;;;;;7.43;3.60;;;16.80;99.90;;;;;;5110772;28;20047;-59
2023/08/03 05:14:22;;;;;;;8.80;4.03;;;16.80;99.90;;;;;;5112076;28;20560;-59
2023/08/03 05:16:48;;;;;;;8.40;4.30;;;16.90;99.90;;;;;;5113162;28;20078;-58
2023/08/03 05:19:13;;;;;;;7.45;4.18;;;16.70;99.90;;;;;;5110119;28;20127;-59
2023/08/03 05:21:39;;;;;;;13.63;5.10;;;16.90;99.90;;;;;;5110456;28;20473;-59
2023/08/03 05:24:05;;;;;;;9.27;4.78;;;16.90;99.90;;;;;;5112734;28;20483;-58
2023/08/03 05:26:34;;;;;;;9.82;5.00;;;16.90;99.90;;;;;;5112644;28;20047;-59
2023/08/03 05:29:02;;;;;;;8.98;5.88;;;16.80;99.90;;;;;;5111301;28;20050;-59
2023/08/03 05:31:27;;;;;;;10.98;6.18;;;16.90;99.90;;;;;;5112560;28;20035;-59
2023/08/03 05:33:54;;;;;;;7.72;5.63;;;16.70;99.90;;;;;;5101670;28;20604;-59
2023/08/03 05:36:20;;;;;;;6.10;5.13;;;16.90;99.90;;;;;;5091484;28;20052;-59
2023/08/03 05:38:46;;;;;;;7.10;4.93;;;16.80;99.90;;;;;;5092344;28;20128;-59
2023/08/03 05:41:16;;;;;;;8.80;5.68;;;16.80;99.90;;;;;;5091842;28;20040;-58
2023/08/03 05:43:42;;;;;;;5.72;4.43;;;17.00;99.90;;;;;;5092067;28;20047;-59
2023/08/03 05:46:12;;;;;;;6.57;5.22;;;16.90;99.90;;;;;;5092070;28;20097;-59
2023/08/03 05:48:38;;;;;;;6.10;4.82;;;17.00;99.90;;;;;;5091614;28;20497;-59
2023/08/03 05:51:04;;;;;;;6.30;4.93;;;17.00;99.90;;;;;;5092268;28;20032;-58
2023/08/03 05:53:30;;;;;;;8.88;5.80;;;16.80;99.90;;;;;;5091664;28;20425;-59
2023/08/03 05:55:56;;;;;;;4.70;4.07;;;16.90;99.90;;;;;;5092096;28;20040;-59
2023/08/03 05:58:22;;;;;;;6.30;4.05;;;16.90;99.90;;;;;;5091693;28;20044;-58
2023/08/03 06:00:49;;;;;;;6.45;4.45;;;16.90;99.90;;;;;;5092118;28;20085;-59
2023/08/03 06:03:17;;;;;;;6.80;4.85;;;16.90;99.90;;;;;;5092045;28;20089;-58
2023/08/03 06:05:44;;;;;;;5.13;4.47;;;17.10;99.90;;;;;;5091923;28;20478;-59
2023/08/03 06:08:17;;;;;;;5.95;5.03;;;17.10;99.90;;;;;;5092044;28;20040;-58
2023/08/03 06:10:48;;;;;;;7.10;4.88;;;17.10;99.90;;;;;;5092449;28;20101;-58
2023/08/03 06:13:15;;;;;;;6.68;4.65;;;17.20;99.90;;;;;;5092084;28;20043;-58
2023/08/03 06:15:42;;;;;;;5.50;4.85;;;17.10;99.90;;;;;;5091510;28;20504;-59
2023/08/03 06:18:11;;;;;;;8.32;4.93;;;17.00;99.90;;;;;;5090414;28;20523;-58
2023/08/03 06:20:48;;;;;;;6.65;4.55;;;17.10;99.90;;;;;;5091716;28;20044;-58
2023/08/03 06:23:25;;;;;;;5.55;4.80;;;17.10;99.90;;;;;;5091627;28;20040;-59
2023/08/03 06:25:54;;;;;;;7.50;4.60;;;17.10;99.90;;;;;;5091861;28;20040;-59
2023/08/03 06:28:21;;;;;;;5.22;4.72;;;17.00;99.90;;;;;;5091869;28;20055;-57
2023/08/03 06:30:49;;;;;;;5.20;4.70;;;17.10;99.90;;;;;;5091798;28;20393;-57
2023/08/03 06:33:16;;;;;;;6.80;4.70;;;17.20;99.90;;;;;;5091662;28;20039;-58
2023/08/03 06:35:50;;;;;;;5.45;4.47;;;17.40;99.90;;;;;;5091858;28;20032;-58
2023/08/03 06:38:16;;;;;;;5.00;3.50;;;17.30;99.90;;;;;;5091819;28;20055;-58
2023/08/03 06:40:44;;;;;;;3.83;3.03;;;17.40;99.90;;;;;;5091479;28;20047;-58
2023/08/03 06:43:11;;;;;;;4.78;3.35;;;17.40;99.90;;;;;;5091216;28;20481;-58
2023/08/03 06:45:37;;;;;;;5.00;3.85;;;17.50;99.90;;;;;;5092082;28;20064;-58
2023/08/03 06:48:04;;;;;;;5.60;3.03;;;17.40;99.90;;;;;;5095039;28;20100;-58
2023/08/03 06:50:31;;;;;;;4.43;3.10;;;17.40;99.90;;;;;;5095029;28;20040;-58
2023/08/03 06:52:57;;;;;;;3.58;3.05;;;17.40;99.90;;;;;;5095274;28;20036;-58
2023/08/03 06:55:23;;;;;;;3.15;2.60;;;17.50;99.90;;;;;;5095337;28;20085;-59
2023/08/03 06:57:50;;;;;;;4.00;3.35;;;17.60;99.90;;;;;;5095453;28;20035;-59
2023/08/03 07:00:16;;;;;;;5.30;3.40;;;17.80;99.90;;;;;;5093503;28;20118;-59
2023/08/03 07:02:44;;;;;;;3.58;3.28;;;17.80;99.90;;;;;;5093735;28;20045;-58
2023/08/03 07:05:10;;;;;;;5.90;3.70;;;17.90;99.90;;;;;;5094952;28;20111;-58
2023/08/03 07:07:35;;;;;;;5.18;3.55;;;18.00;99.90;;;;;;5094988;28;20131;-58
2023/08/03 07:10:01;;;;;;;4.03;3.53;;;17.90;99.90;;;;;;5095073;28;20496;-58
2023/08/03 07:12:27;;;;;;;4.55;3.03;;;17.90;99.90;;;;;;5094837;28;20032;-58
2023/08/03 07:14:53;;;;;;;3.30;2.72;;;18.00;99.90;;;;;;5094911;28;20028;-59
2023/08/03 07:17:19;;;;;;;6.38;2.55;;;18.20;99.90;;;;;;5094790;28;20386;-58
2023/08/03 07:19:50;;;;;;;2.60;2.38;;;18.40;99.90;;;;;;5094541;28;20498;-58
2023/08/03 07:22:17;;;;;;;5.75;2.13;;;18.60;99.90;;;;;;5094789;28;20047;-57
2023/08/03 07:24:42;;;;;;;2.55;2.33;;;18.70;99.90;;;;;;5094741;28;20093;-57
2023/08/03 07:27:08;;;;;;;5.25;2.22;;;19.00;99.90;;;;;;5092984;28;20040;-56
2023/08/03 07:29:34;;;;;;;4.57;1.63;;;19.00;99.90;;;;;;5094660;28;20036;-58
2023/08/03 07:32:01;;;;;;;3.30;1.60;;;18.90;99.90;;;;;;5094750;28;20036;-58
2023/08/03 07:34:26;;;;;;;4.72;0.90;;;18.90;99.90;;;;;;5094292;28;20397;-58
2023/08/03 07:36:53;;;;;;;3.75;1.25;;;18.60;99.90;;;;;;5094163;28;20131;-58
2023/08/03 07:39:20;;;;;;;2.08;1.00;;;18.60;99.90;;;;;;5097816;28;20043;-59
2023/08/03 07:41:46;;;;;;;2.42;1.10;;;18.90;99.90;;;;;;5114512;28;20040;-59
2023/08/03 07:44:12;;;;;;;4.00;1.70;;;19.00;99.90;;;;;;5114614;28;20520;-59
2023/08/03 07:46:37;;;;;;;4.38;1.33;;;19.00;99.90;;;;;;5114716;28;20050;-59
2023/08/03 07:49:03;;;;;;;5.15;1.55;;;19.00;99.90;;;;;;5114935;28;20051;-59
2023/08/03 07:51:29;;;;;;;5.50;1.20;;;19.20;99.90;;;;;;5114452;28;20047;-59
2023/08/03 07:53:55;;;;;;;1.95;1.13;;;19.30;99.90;;;;;;5114407;28;20043;-59
2023/08/03 07:56:22;;;;;;;5.10;1.42;;;19.40;99.90;;;;;;5114461;28;20385;-59
2023/08/03 07:58:49;;;;;;;3.58;1.30;;;19.50;99.90;;;;;;5113419;28;20115;-59
2023/08/03 08:01:16;;;;;;;2.78;1.10;;;19.40;99.90;;;;;;5114495;28;20093;-59
2023/08/03 08:03:42;;;;;;;2.08;1.20;;;19.60;99.90;;;;;;5114448;28;20114;-59
2023/08/03 08:06:10;;;;;;;7.10;1.48;;;19.40;99.90;;;;;;5114323;28;20046;-59
2023/08/03 08:08:39;;;;;;;5.50;1.10;;;19.60;99.90;;;;;;5114263;28;20039;-59
2023/08/03 08:11:05;;;;;;;3.55;0.95;;;20.00;99.90;;;;;;5114034;28;20043;-59
2023/08/03 08:13:31;;;;;;;3.67;1.38;;;20.30;99.90;;;;;;5113996;28;20130;-59
2023/08/03 08:16:04;;;;;;;5.20;1.52;;;20.70;99.90;;;;;;5114242;28;20517;-59
2023/08/03 08:18:31;;;;;;;3.67;0.60;;;20.50;99.90;;;;;;5112840;28;20043;-59
2023/08/03 08:20:58;;;;;;;3.28;1.10;;;20.20;99.90;;;;;;5113879;28;20516;-57
2023/08/03 08:23:24;;;;;;;4.07;0.90;;;20.00;99.90;;;;;;5113388;28;20092;-57
2023/08/03 08:25:50;;;;;;;4.45;1.20;;;19.70;99.90;;;;;;5113918;28;20048;-57
2023/08/03 08:28:16;;;;;;;4.28;0.90;;;19.50;99.90;;;;;;5114107;28;20112;-57
2023/08/03 08:30:41;;;;;;;8.10;1.42;;;19.50;99.90;;;;;;5113684;28;20039;-58
2023/08/03 08:33:07;;;;;;;3.15;1.05;;;19.80;99.90;;;;;;5109747;28;20035;-58
2023/08/03 08:35:33;;;;;;;4.43;0.98;;;20.10;99.90;;;;;;5093606;28;20036;-57
2023/08/03 08:38:04;;;;;;;3.65;0.82;;;20.40;99.90;;;;;;5092722;28;20083;-57
2023/08/03 08:40:30;;;;;;;6.63;1.40;;;20.40;99.90;;;;;;5093380;28;20482;-57
2023/08/03 08:42:56;;;;;;;6.28;0.93;;;20.30;99.90;;;;;;5093189;28;20140;-57
2023/08/03 08:45:22;;;;;;;9.68;0.95;;;20.40;99.90;;;;;;5092868;28;20115;-58
2023/08/03 08:47:48;;;;;;;9.65;1.55;;;20.80;99.90;;;;;;5092968;28;20035;-57
2023/08/03 08:50:14;;;;;;;3.40;0.80;;;20.70;99.90;;;;;;5092916;28;20063;-57
2023/08/03 08:52:44;;;;;;;5.72;0.93;;;20.80;99.90;;;;;;5092864;28;20486;-58
2023/08/03 08:55:20;;;;;;;3.58;0.90;;;21.10;99.90;;;;;;5092784;28;20075;-58
2023/08/03 08:57:46;;;;;;;4.20;1.10;;;21.40;99.90;;;;;;5092686;28;20036;-58
2023/08/03 09:00:12;;;;;;;4.00;0.90;;;21.50;99.90;;;;;;5091274;28;20042;-58
2023/08/03 09:02:38;;;;;;;2.67;0.70;;;21.40;99.90;;;;;;5096014;28;20085;-59
2023/08/03 09:05:20;;;;;;;5.50;0.80;;;21.20;99.90;;;;;;5098161;28;20031;-57
2023/08/03 09:08:02;;;;;;;3.63;0.80;;;21.00;99.90;;;;;;5104678;28;20042;-58
2023/08/03 09:10:28;;;;;;;5.75;1.50;;;20.90;99.90;;;;;;5110362;28;20115;-58
2023/08/03 09:12:54;;;;;;;7.95;1.60;;;21.10;99.90;;;;;;5097303;28;20024;-59
2023/08/03 09:15:40;;;;;;;5.38;1.40;;;21.20;99.90;;;;;;5097860;28;20035;-59
2023/08/03 09:18:06;;;;;;;5.05;1.20;;;21.10;99.90;;;;;;5104669;28;20043;-57
2023/08/03 09:20:33;;;;;;;6.15;1.83;;;21.40;99.90;;;;;;5108548;28;20439;-58
2023/08/03 09:23:00;;;;;;;6.60;1.50;;;21.70;99.90;;;;;;5105777;28;20533;-59
2023/08/03 09:25:25;;;;;;;5.00;1.40;;;22.00;99.90;;;;;;5095833;28;20031;-58
2023/08/03 09:27:54;;;;;;;5.57;1.50;;;22.30;99.90;;;;;;5098571;28;20124;-58
2023/08/03 09:30:20;;;;;;;8.68;1.60;;;22.20;99.90;;;;;;5106644;28;20477;-58
2023/08/03 09:32:47;;;;;;;5.30;1.73;;;22.20;99.90;;;;;;5105821;28;20111;-58
2023/08/03 09:35:17;;;;;;;8.20;1.92;;;22.40;99.90;;;;;;5092190;28;20032;-59
2023/08/03 09:37:43;;;;;;;8.93;2.08;;;22.30;99.90;;;;;;5091460;28;20399;-59
2023/08/03 09:40:09;;;;;;;8.07;1.80;;;22.40;99.90;;;;;;5090916;28;20069;-58
2023/08/03 09:42:37;;;;;;;7.30;2.25;;;22.30;99.90;;;;;;5091495;28;20043;-59
2023/08/03 09:45:04;;;;;;;9.48;1.50;;;22.50;99.90;;;;;;5091637;28;20543;-59
2023/08/03 09:47:31;;;;;;;8.35;1.50;;;22.80;99.90;;;;;;5092100;28;20024;-59
2023/08/03 09:49:57;;;;;;;5.70;2.00;;;23.00;99.90;;;;;;5091626;28;20055;-59
2023/08/03 09:52:26;;;;;;;5.68;1.65;;;23.30;99.90;;;;;;5092354;28;20059;-59
2023/08/03 09:55:20;;;;;;;6.78;1.75;;;23.50;99.90;;;;;;5091766;28;20065;-58
2023/08/03 09:58:08;;;;;;;7.72;1.55;;;23.20;99.90;;;;;;5091023;28;20129;-59
2023/08/03 10:00:35;;;;;;;6.13;1.58;;;22.80;99.90;;;;;;5091975;28;20032;-59
2023/08/03 10:03:09;;;;;;;14.30;1.50;;;22.50;99.90;;;;;;5092054;28;20047;-58
2023/08/03 10:05:51;;;;;;;8.38;1.88;;;22.90;99.90;;;;;;5091899;28;20039;-58
2023/08/03 10:08:33;;;;;;;7.80;1.42;;;23.00;99.90;;;;;;5091732;28;20111;-60
2023/08/03 10:11:01;;;;;;;3.85;1.27;;;22.80;99.90;;;;;;5079180;28;20477;-58
2023/08/03 10:13:28;;;;;;;5.03;1.10;;;22.90;99.90;;;;;;5091663;28;20490;-58
2023/08/03 10:15:54;;;;;;;3.83;1.30;;;23.10;99.90;;;;;;5092156;28;20036;-58
2023/08/03 10:18:20;;;;;;;6.38;1.10;;;23.30;99.90;;;;;;5091803;28;20047;-58
2023/08/03 10:20:47;;;;;;;3.58;1.33;;;23.60;99.90;;;;;;5092369;28;20039;-59
2023/08/03 10:23:16;;;;;;;4.50;1.13;;;23.70;99.90;;;;;;5105313;28;20371;-59
2023/08/03 10:25:54;;;;;;;4.00;1.00;;;24.10;99.90;;;;;;5116422;28;20366;-59
2023/08/03 10:28:20;;;;;;;3.83;1.25;;;24.00;99.90;;;;;;5115800;28;20044;-58
2023/08/03 10:31:15;;;;;;;5.78;1.10;;;23.40;99.90;;;;;;5115986;28;20051;-58
2023/08/03 10:33:47;;;;;;;5.32;1.52;;;23.10;99.90;;;;;;5106893;28;20046;-58
2023/08/03 10:36:27;;;;;;;5.18;1.60;;;22.60;99.90;;;;;;5094803;28;20036;-58
2023/08/03 10:39:00;;;;;;;5.80;1.60;;;22.70;99.90;;;;;;5094401;28;20406;-58
2023/08/03 10:41:29;;;;;;;10.20;2.00;;;22.50;99.90;;;;;;5095298;28;20044;-58
2023/08/03 10:44:23;;;;;;;6.93;1.85;;;22.50;99.90;;;;;;5095295;28;20044;-58
2023/08/03 10:46:55;;;;;;;5.25;1.95;;;22.10;99.90;;;;;;5095235;28;20036;-58
2023/08/03 10:49:20;;;;;;;5.80;1.35;;;22.00;99.90;;;;;;5095330;28;20105;-58
2023/08/03 10:51:47;;;;;;;6.05;1.33;;;21.80;99.90;;;;;;5095440;28;20793;-58
2023/08/03 10:54:12;;;;;;;6.50;1.40;;;21.70;99.90;;;;;;5095671;28;20453;-58
2023/08/03 10:56:38;;;;;;;6.40;1.40;;;21.50;99.90;;;;;;5094852;28;20075;-58
2023/08/03 10:59:04;;;;;;;4.15;1.23;;;21.40;99.90;;;;;;5093694;28;20044;-57
2023/08/03 11:01:31;;;;;;;3.15;1.17;;;21.30;99.90;;;;;;5095053;28;20043;-57
2023/08/03 11:03:58;;;;;;;4.28;1.10;;;21.70;99.90;;;;;;5094631;28;20110;-57
2023/08/03 11:06:27;;;;;;;5.32;1.17;;;22.00;99.90;;;;;;5093596;28;20494;-56
2023/08/03 11:08:54;;;;;;;6.63;1.23;;;22.10;99.90;;;;;;5094358;28;20505;-58
2023/08/03 11:11:27;;;;;;;6.25;1.15;;;22.40;99.90;;;;;;5094854;28;20036;-58
2023/08/03 11:13:53;;;;;;;6.93;1.10;;;22.20;99.90;;;;;;5094586;28;20186;-58
2023/08/03 11:16:20;;;;;;;8.82;1.20;;;22.00;99.90;;;;;;5094645;28;20527;-58
2023/08/03 11:18:46;;;;;;;4.82;1.33;;;21.80;99.90;;;;;;5094596;28;20036;-58
2023/08/03 11:21:12;;;;;;;4.53;0.75;;;21.90;99.90;;;;;;5094590;28;20092;-57
2023/08/03 11:23:38;;;;;;;3.35;0.75;;;21.90;99.90;;;;;;5093379;28;20109;-57
2023/08/03 11:26:06;;;;;;;3.15;0.85;;;21.70;99.90;;;;;;5094586;28;20345;-58
2023/08/03 11:28:42;;;;;;;2.63;0.77;;;21.70;99.90;;;;;;5094789;28;20485;-58
2023/08/03 11:31:18;;;;;;;5.30;1.20;;;21.80;99.90;;;;;;5094241;28;20077;-57
2023/08/03 11:33:50;;;;;;;4.80;1.13;;;22.10;99.90;;;;;;5092897;28;20055;-58
2023/08/03 11:36:23;;;;;;;4.07;1.35;;;22.30;99.90;;;;;;5093870;28;20051;-58
2023/08/03 11:38:51;;;;;;;6.50;1.50;;;22.20;99.90;;;;;;5094573;28;20047;-57
2023/08/03 11:41:26;;;;;;;2.70;0.70;;;22.40;99.90;;;;;;5093922;28;20046;-58
2023/08/03 11:43:52;;;;;;;1.50;0.60;;;22.40;99.90;;;;;;5094155;28;20383;-58
2023/08/03 11:46:26;;;;;;;5.97;1.15;;;22.30;99.90;;;;;;5094271;28;20420;-57
2023/08/03 11:48:56;;;;;;;3.13;0.90;;;22.40;99.90;;;;;;5094203;28;20140;-57
2023/08/03 11:51:33;;;;;;;1.98;0.88;;;22.60;99.90;;;;;;5094400;28;20040;-57
2023/08/03 11:54:03;;;;;;;1.65;0.60;;;22.70;99.90;;;;;;5109570;28;20039;-57
2023/08/03 11:56:29;;;;;;;3.13;0.85;;;22.60;99.90;;;;;;5113218;28;20384;-56
2023/08/03 11:58:57;;;;;;;2.47;0.93;;;22.60;99.90;;;;;;5112839;28;20122;-58
2023/08/03 12:01:26;;;;;;;1.73;0.70;;;22.70;99.90;;;;;;5114564;28;20070;-56
2023/08/03 12:04:04;;;;;;;3.92;1.10;;;23.00;99.90;;;;;;5114329;28;20086;-58
2023/08/03 12:06:45;;;;;;;2.23;0.90;;;23.10;99.90;;;;;;5114128;28;20594;-58
2023/08/03 12:09:17;;;;;;;5.25;1.10;;;23.10;99.90;;;;;;5113814;28;20297;-59
2023/08/03 12:11:43;;;;;;;4.07;1.10;;;23.20;99.90;;;;;;5114159;28;20393;-61
2023/08/03 12:14:10;;;;;;;3.13;1.20;;;23.10;99.90;;;;;;5113735;27;20036;-63
2023/08/03 12:16:39;;;;;;;3.17;1.00;;;23.40;99.90;;;;;;5113775;27;20047;-61
2023/08/03 12:19:08;;;;;;;8.32;1.77;;;23.60;99.90;;;;;;5113609;27;20039;-61
2023/08/03 12:21:37;;;;;;;4.60;1.15;;;23.60;99.90;;;;;;5113836;28;20040;-61
2023/08/03 12:24:04;;;;;;;8.02;1.38;;;23.40;99.90;;;;;;5113459;28;20131;-60
2023/08/03 12:26:30;;;;;;;7.68;1.50;;;23.10;99.90;;;;;;5113471;28;20373;-61
2023/08/03 12:28:56;;;;;;;10.75;2.13;;;22.80;99.90;;;;;;5113484;28;20036;-61
2023/08/03 12:31:23;;;;;;;5.45;1.60;;;22.60;99.90;;;;;;5113394;28;20036;-62
2023/08/03 12:33:48;;;;;;;6.53;1.98;;;22.50;99.90;;;;;;5103704;28;20063;-61
2023/08/03 12:36:15;;;;;;;11.80;2.60;;;22.30;99.90;;;;;;5092563;28;20078;-62
2023/08/03 12:38:41;;;;;;;13.52;1.70;;;22.20;99.90;;;;;;5092788;28;20554;-63
2023/08/03 12:41:06;;;;;;;10.00;1.30;;;22.00;99.90;;;;;;5093062;28;20044;-63
2023/08/03 12:43:32;;;;;;;7.47;1.60;;;21.90;99.90;;;;;;5092245;28;20039;-62
2023/08/03 12:45:58;;;;;;;8.10;1.60;;;21.80;99.90;;;;;;5092833;28;20040;-62